Terminal Aerodrome Forecast
Issued by NWS Upton, NY

Current Version | Previous Version | Text Only | Print | Product List | Glossary On
Versions: 1 2 3 4 5 6 7 8 9 10 11 12 13 14 15 16 17 18 19 20 21 22 23 24 25
000
FTUS41 KOKX 110200 AAA
TAFBDR
TAF AMD
KBDR 110240Z 1103/1124 VRB03KT P6SM SCT050 BKN100
     FM110600 03005KT P6SM FEW050
     FM111700 15006KT P6SM FEW050=

USA.gov is the U.S. government's official web portal to all federal, state and local government web resources and services.